sensor_id;sensor_type;location;lat;lon;timestamp;P1;durP1;ratioP1;P2;durP2;ratioP2
22922;SDS011;11627;51.322;22.816;2022-12-11T00:00:07;39.42;;;14.40;;
22922;SDS011;11627;51.322;22.816;2022-12-11T00:02:34;39.47;;;14.30;;
22922;SDS011;11627;51.322;22.816;2022-12-11T00:04:59;36.72;;;12.88;;
22922;SDS011;11627;51.322;22.816;2022-12-11T00:07:25;38.45;;;14.82;;
22922;SDS011;11627;51.322;22.816;2022-12-11T00:09:51;40.28;;;15.40;;
22922;SDS011;11627;51.322;22.816;2022-12-11T00:12:16;40.00;;;15.88;;
22922;SDS011;11627;51.322;22.816;2022-12-11T00:14:42;43.55;;;15.65;;
22922;SDS011;11627;51.322;22.816;2022-12-11T00:17:08;42.38;;;15.10;;
22922;SDS011;11627;51.322;22.816;2022-12-11T00:19:34;44.13;;;14.98;;
22922;SDS011;11627;51.322;22.816;2022-12-11T00:21:59;39.20;;;14.18;;
22922;SDS011;11627;51.322;22.816;2022-12-11T00:24:25;37.50;;;14.35;;
22922;SDS011;11627;51.322;22.816;2022-12-11T00:26:50;38.88;;;13.57;;
22922;SDS011;11627;51.322;22.816;2022-12-11T00:29:16;38.00;;;12.93;;
22922;SDS011;11627;51.322;22.816;2022-12-11T00:31:42;34.33;;;12.73;;
22922;SDS011;11627;51.322;22.816;2022-12-11T00:34:08;33.65;;;12.98;;
22922;SDS011;11627;51.322;22.816;2022-12-11T00:36:36;35.42;;;13.23;;
22922;SDS011;11627;51.322;22.816;2022-12-11T00:39:02;35.38;;;12.85;;
22922;SDS011;11627;51.322;22.816;2022-12-11T00:41:29;29.95;;;12.10;;
22922;SDS011;11627;51.322;22.816;2022-12-11T00:43:54;28.58;;;11.88;;
22922;SDS011;11627;51.322;22.816;2022-12-11T00:46:20;27.48;;;10.95;;
22922;SDS011;11627;51.322;22.816;2022-12-11T00:48:46;31.17;;;12.00;;
22922;SDS011;11627;51.322;22.816;2022-12-11T00:51:13;30.30;;;11.38;;
22922;SDS011;11627;51.322;22.816;2022-12-11T00:53:40;27.70;;;11.35;;
22922;SDS011;11627;51.322;22.816;2022-12-11T00:56:09;28.02;;;10.80;;
22922;SDS011;11627;51.322;22.816;2022-12-11T00:58:39;25.10;;;10.07;;
22922;SDS011;11627;51.322;22.816;2022-12-11T01:01:09;29.33;;;11.57;;
22922;SDS011;11627;51.322;22.816;2022-12-11T01:03:36;25.33;;;10.45;;
22922;SDS011;11627;51.322;22.816;2022-12-11T01:06:02;28.80;;;11.02;;
22922;SDS011;11627;51.322;22.816;2022-12-11T01:08:28;24.58;;;10.68;;
22922;SDS011;11627;51.322;22.816;2022-12-11T01:11:00;23.75;;;10.48;;
22922;SDS011;11627;51.322;22.816;2022-12-11T01:13:27;23.88;;;9.48;;
22922;SDS011;11627;51.322;22.816;2022-12-11T01:15:53;27.25;;;10.60;;
22922;SDS011;11627;51.322;22.816;2022-12-11T01:18:19;24.90;;;11.00;;
22922;SDS011;11627;51.322;22.816;2022-12-11T01:20:44;21.27;;;9.55;;
22922;SDS011;11627;51.322;22.816;2022-12-11T01:23:10;29.25;;;11.15;;
22922;SDS011;11627;51.322;22.816;2022-12-11T01:25:37;24.27;;;10.55;;
22922;SDS011;11627;51.322;22.816;2022-12-11T01:28:03;23.15;;;10.57;;
22922;SDS011;11627;51.322;22.816;2022-12-11T01:30:30;24.23;;;10.43;;
22922;SDS011;11627;51.322;22.816;2022-12-11T01:32:55;24.42;;;10.23;;
22922;SDS011;11627;51.322;22.816;2022-12-11T01:35:21;26.85;;;11.50;;
22922;SDS011;11627;51.322;22.816;2022-12-11T01:37:47;23.65;;;10.15;;
22922;SDS011;11627;51.322;22.816;2022-12-11T01:40:14;24.00;;;9.93;;
22922;SDS011;11627;51.322;22.816;2022-12-11T01:42:41;22.75;;;9.75;;
22922;SDS011;11627;51.322;22.816;2022-12-11T01:48:17;21.25;;;9.48;;
22922;SDS011;11627;51.322;22.816;2022-12-11T01:51:05;22.70;;;10.45;;
22922;SDS011;11627;51.322;22.816;2022-12-11T01:53:32;22.45;;;10.00;;
22922;SDS011;11627;51.322;22.816;2022-12-11T01:56:01;22.92;;;10.13;;
22922;SDS011;11627;51.322;22.816;2022-12-11T01:58:28;22.27;;;9.88;;
22922;SDS011;11627;51.322;22.816;2022-12-11T02:00:57;22.00;;;9.80;;
22922;SDS011;11627;51.322;22.816;2022-12-11T02:03:25;22.10;;;9.82;;
22922;SDS011;11627;51.322;22.816;2022-12-11T02:05:51;22.05;;;9.60;;
22922;SDS011;11627;51.322;22.816;2022-12-11T02:08:16;23.70;;;9.48;;
22922;SDS011;11627;51.322;22.816;2022-12-11T02:10:47;18.73;;;9.23;;
22922;SDS011;11627;51.322;22.816;2022-12-11T02:15:52;20.10;;;9.43;;
22922;SDS011;11627;51.322;22.816;2022-12-11T02:21:07;23.02;;;9.52;;
22922;SDS011;11627;51.322;22.816;2022-12-11T02:28:42;18.88;;;9.48;;
22922;SDS011;11627;51.322;22.816;2022-12-11T02:31:15;21.98;;;9.90;;
22922;SDS011;11627;51.322;22.816;2022-12-11T02:36:17;17.92;;;8.32;;
22922;SDS011;11627;51.322;22.816;2022-12-11T02:38:47;21.40;;;9.05;;
22922;SDS011;11627;51.322;22.816;2022-12-11T02:41:16;19.80;;;10.10;;
22922;SDS011;11627;51.322;22.816;2022-12-11T02:43:44;19.27;;;9.60;;
22922;SDS011;11627;51.322;22.816;2022-12-11T02:46:11;20.92;;;9.32;;
22922;SDS011;11627;51.322;22.816;2022-12-11T02:48:38;20.95;;;9.45;;
22922;SDS011;11627;51.322;22.816;2022-12-11T02:51:05;18.90;;;9.40;;
22922;SDS011;11627;51.322;22.816;2022-12-11T02:53:33;18.13;;;8.75;;
22922;SDS011;11627;51.322;22.816;2022-12-11T02:56:07;17.88;;;8.82;;
22922;SDS011;11627;51.322;22.816;2022-12-11T02:58:37;18.17;;;8.85;;
22922;SDS011;11627;51.322;22.816;2022-12-11T03:01:09;17.67;;;8.40;;
22922;SDS011;11627;51.322;22.816;2022-12-11T03:03:35;18.98;;;9.00;;
22922;SDS011;11627;51.322;22.816;2022-12-11T03:06:00;20.67;;;9.27;;
22922;SDS011;11627;51.322;22.816;2022-12-11T03:08:27;17.17;;;8.77;;
22922;SDS011;11627;51.322;22.816;2022-12-11T03:10:53;17.40;;;8.20;;
22922;SDS011;11627;51.322;22.816;2022-12-11T03:13:19;16.30;;;7.72;;
22922;SDS011;11627;51.322;22.816;2022-12-11T03:18:45;18.48;;;9.13;;
22922;SDS011;11627;51.322;22.816;2022-12-11T03:21:23;18.90;;;8.45;;
22922;SDS011;11627;51.322;22.816;2022-12-11T03:24:09;20.42;;;9.20;;
22922;SDS011;11627;51.322;22.816;2022-12-11T03:26:47;14.05;;;7.78;;
22922;SDS011;11627;51.322;22.816;2022-12-11T03:29:25;19.73;;;8.68;;
22922;SDS011;11627;51.322;22.816;2022-12-11T03:32:03;17.33;;;8.00;;
22922;SDS011;11627;51.322;22.816;2022-12-11T03:37:45;19.88;;;8.02;;
22922;SDS011;11627;51.322;22.816;2022-12-11T03:40:15;17.98;;;8.32;;
22922;SDS011;11627;51.322;22.816;2022-12-11T03:42:43;17.35;;;8.02;;
22922;SDS011;11627;51.322;22.816;2022-12-11T03:45:11;17.02;;;8.55;;
22922;SDS011;11627;51.322;22.816;2022-12-11T03:47:38;18.05;;;8.73;;
22922;SDS011;11627;51.322;22.816;2022-12-11T03:50:07;18.73;;;8.52;;
22922;SDS011;11627;51.322;22.816;2022-12-11T03:52:36;16.52;;;8.18;;
22922;SDS011;11627;51.322;22.816;2022-12-11T03:55:03;17.45;;;8.63;;
22922;SDS011;11627;51.322;22.816;2022-12-11T03:57:31;16.98;;;8.48;;
22922;SDS011;11627;51.322;22.816;2022-12-11T03:59:59;19.60;;;8.98;;
22922;SDS011;11627;51.322;22.816;2022-12-11T04:02:25;18.45;;;8.75;;
22922;SDS011;11627;51.322;22.816;2022-12-11T04:04:50;17.65;;;8.25;;
22922;SDS011;11627;51.322;22.816;2022-12-11T04:07:16;20.05;;;9.05;;
22922;SDS011;11627;51.322;22.816;2022-12-11T04:09:42;17.77;;;8.90;;
22922;SDS011;11627;51.322;22.816;2022-12-11T04:12:07;17.00;;;8.63;;
22922;SDS011;11627;51.322;22.816;2022-12-11T04:14:33;18.45;;;8.32;;
22922;SDS011;11627;51.322;22.816;2022-12-11T04:17:17;18.50;;;8.27;;
22922;SDS011;11627;51.322;22.816;2022-12-11T04:20:02;17.63;;;8.30;;
22922;SDS011;11627;51.322;22.816;2022-12-11T04:22:47;16.73;;;8.23;;
22922;SDS011;11627;51.322;22.816;2022-12-11T04:25:31;17.02;;;8.68;;
22922;SDS011;11627;51.322;22.816;2022-12-11T04:27:57;18.02;;;8.32;;
22922;SDS011;11627;51.322;22.816;2022-12-11T04:30:23;18.00;;;8.57;;
22922;SDS011;11627;51.322;22.816;2022-12-11T04:32:50;17.45;;;8.60;;
22922;SDS011;11627;51.322;22.816;2022-12-11T04:35:17;17.17;;;7.88;;
22922;SDS011;11627;51.322;22.816;2022-12-11T04:37:43;20.33;;;9.02;;
22922;SDS011;11627;51.322;22.816;2022-12-11T04:40:10;16.52;;;7.75;;
22922;SDS011;11627;51.322;22.816;2022-12-11T04:42:38;17.73;;;8.32;;
22922;SDS011;11627;51.322;22.816;2022-12-11T04:45:04;17.77;;;8.95;;
22922;SDS011;11627;51.322;22.816;2022-12-11T04:47:33;16.83;;;8.48;;
22922;SDS011;11627;51.322;22.816;2022-12-11T04:50:03;16.30;;;8.95;;
22922;SDS011;11627;51.322;22.816;2022-12-11T04:52:30;21.10;;;9.43;;
22922;SDS011;11627;51.322;22.816;2022-12-11T04:54:55;19.65;;;8.70;;
22922;SDS011;11627;51.322;22.816;2022-12-11T04:57:21;15.73;;;9.02;;
22922;SDS011;11627;51.322;22.816;2022-12-11T04:59:47;17.25;;;8.52;;
22922;SDS011;11627;51.322;22.816;2022-12-11T05:02:13;18.17;;;9.10;;
22922;SDS011;11627;51.322;22.816;2022-12-11T05:04:39;16.05;;;7.80;;
22922;SDS011;11627;51.322;22.816;2022-12-11T05:07:06;20.77;;;8.98;;
22922;SDS011;11627;51.322;22.816;2022-12-11T05:09:33;16.63;;;8.48;;
22922;SDS011;11627;51.322;22.816;2022-12-11T05:12:00;19.27;;;8.30;;
22922;SDS011;11627;51.322;22.816;2022-12-11T05:14:26;18.23;;;8.15;;
22922;SDS011;11627;51.322;22.816;2022-12-11T05:16:54;16.05;;;8.02;;
22922;SDS011;11627;51.322;22.816;2022-12-11T05:19:19;18.42;;;8.77;;
22922;SDS011;11627;51.322;22.816;2022-12-11T05:21:45;18.58;;;9.10;;
22922;SDS011;11627;51.322;22.816;2022-12-11T05:24:11;16.10;;;8.32;;
22922;SDS011;11627;51.322;22.816;2022-12-11T05:26:36;18.30;;;8.02;;
22922;SDS011;11627;51.322;22.816;2022-12-11T05:29:02;16.33;;;8.02;;
22922;SDS011;11627;51.322;22.816;2022-12-11T05:31:27;16.48;;;8.52;;
22922;SDS011;11627;51.322;22.816;2022-12-11T05:33:53;16.17;;;8.05;;
22922;SDS011;11627;51.322;22.816;2022-12-11T05:36:20;16.52;;;8.45;;
22922;SDS011;11627;51.322;22.816;2022-12-11T05:38:50;17.35;;;8.45;;
22922;SDS011;11627;51.322;22.816;2022-12-11T05:41:18;14.88;;;8.13;;
22922;SDS011;11627;51.322;22.816;2022-12-11T05:43:45;16.05;;;8.05;;
22922;SDS011;11627;51.322;22.816;2022-12-11T05:46:15;16.42;;;8.23;;
22922;SDS011;11627;51.322;22.816;2022-12-11T05:48:43;15.27;;;7.57;;
22922;SDS011;11627;51.322;22.816;2022-12-11T05:51:11;15.55;;;8.15;;
22922;SDS011;11627;51.322;22.816;2022-12-11T05:53:38;15.77;;;7.63;;
22922;SDS011;11627;51.322;22.816;2022-12-11T05:56:05;15.43;;;7.15;;
22922;SDS011;11627;51.322;22.816;2022-12-11T05:58:34;16.65;;;7.95;;
22922;SDS011;11627;51.322;22.816;2022-12-11T06:01:00;13.30;;;7.15;;
22922;SDS011;11627;51.322;22.816;2022-12-11T06:03:26;13.50;;;7.15;;
22922;SDS011;11627;51.322;22.816;2022-12-11T06:05:52;13.25;;;7.63;;
22922;SDS011;11627;51.322;22.816;2022-12-11T06:08:18;16.88;;;7.88;;
22922;SDS011;11627;51.322;22.816;2022-12-11T06:10:44;15.68;;;7.70;;
22922;SDS011;11627;51.322;22.816;2022-12-11T06:13:11;16.67;;;8.20;;
22922;SDS011;11627;51.322;22.816;2022-12-11T06:15:37;13.85;;;6.65;;
22922;SDS011;11627;51.322;22.816;2022-12-11T06:18:02;16.30;;;8.13;;
22922;SDS011;11627;51.322;22.816;2022-12-11T06:20:30;15.20;;;7.60;;
22922;SDS011;11627;51.322;22.816;2022-12-11T06:22:57;17.23;;;8.15;;
22922;SDS011;11627;51.322;22.816;2022-12-11T06:25:23;16.10;;;7.55;;
22922;SDS011;11627;51.322;22.816;2022-12-11T06:27:49;16.33;;;7.50;;
22922;SDS011;11627;51.322;22.816;2022-12-11T06:30:14;17.98;;;8.70;;
22922;SDS011;11627;51.322;22.816;2022-12-11T06:32:40;17.45;;;8.65;;
22922;SDS011;11627;51.322;22.816;2022-12-11T06:35:06;17.48;;;7.88;;
22922;SDS011;11627;51.322;22.816;2022-12-11T06:37:33;17.02;;;8.20;;
22922;SDS011;11627;51.322;22.816;2022-12-11T06:40:00;16.67;;;7.80;;
22922;SDS011;11627;51.322;22.816;2022-12-11T06:42:25;21.65;;;8.48;;
22922;SDS011;11627;51.322;22.816;2022-12-11T06:44:53;23.33;;;9.25;;
22922;SDS011;11627;51.322;22.816;2022-12-11T06:47:19;18.65;;;8.82;;
22922;SDS011;11627;51.322;22.816;2022-12-11T06:49:44;18.80;;;9.07;;
22922;SDS011;11627;51.322;22.816;2022-12-11T06:52:10;20.98;;;8.63;;
22922;SDS011;11627;51.322;22.816;2022-12-11T06:54:35;21.33;;;9.27;;
22922;SDS011;11627;51.322;22.816;2022-12-11T06:57:01;19.27;;;9.07;;
22922;SDS011;11627;51.322;22.816;2022-12-11T06:59:26;21.45;;;9.70;;
22922;SDS011;11627;51.322;22.816;2022-12-11T07:01:52;23.55;;;9.35;;
22922;SDS011;11627;51.322;22.816;2022-12-11T07:04:17;23.67;;;9.07;;
22922;SDS011;11627;51.322;22.816;2022-12-11T07:06:43;23.38;;;9.75;;
22922;SDS011;11627;51.322;22.816;2022-12-11T07:09:11;19.85;;;8.90;;
22922;SDS011;11627;51.322;22.816;2022-12-11T07:11:37;24.15;;;8.80;;
22922;SDS011;11627;51.322;22.816;2022-12-11T07:14:02;21.23;;;9.35;;
22922;SDS011;11627;51.322;22.816;2022-12-11T07:16:28;18.63;;;7.90;;
22922;SDS011;11627;51.322;22.816;2022-12-11T07:18:53;20.60;;;8.05;;
22922;SDS011;11627;51.322;22.816;2022-12-11T07:21:19;17.08;;;8.07;;
22922;SDS011;11627;51.322;22.816;2022-12-11T07:23:45;19.33;;;8.43;;
22922;SDS011;11627;51.322;22.816;2022-12-11T07:26:13;18.05;;;7.97;;
22922;SDS011;11627;51.322;22.816;2022-12-11T07:28:40;16.25;;;7.35;;
22922;SDS011;11627;51.322;22.816;2022-12-11T07:31:07;16.55;;;7.32;;
22922;SDS011;11627;51.322;22.816;2022-12-11T07:33:35;16.45;;;7.28;;
22922;SDS011;11627;51.322;22.816;2022-12-11T07:36:01;18.88;;;7.80;;
22922;SDS011;11627;51.322;22.816;2022-12-11T07:38:28;17.63;;;8.18;;
22922;SDS011;11627;51.322;22.816;2022-12-11T07:40:54;17.33;;;7.55;;
22922;SDS011;11627;51.322;22.816;2022-12-11T07:43:20;15.30;;;7.05;;
22922;SDS011;11627;51.322;22.816;2022-12-11T07:45:46;15.50;;;7.07;;
22922;SDS011;11627;51.322;22.816;2022-12-11T07:48:11;16.90;;;7.22;;
22922;SDS011;11627;51.322;22.816;2022-12-11T07:50:37;17.20;;;7.57;;
22922;SDS011;11627;51.322;22.816;2022-12-11T07:53:03;17.17;;;7.72;;
22922;SDS011;11627;51.322;22.816;2022-12-11T07:55:28;16.77;;;7.00;;
22922;SDS011;11627;51.322;22.816;2022-12-11T07:57:55;16.80;;;7.82;;
22922;SDS011;11627;51.322;22.816;2022-12-11T08:00:21;14.77;;;7.10;;
22922;SDS011;11627;51.322;22.816;2022-12-11T08:02:47;17.45;;;7.55;;
22922;SDS011;11627;51.322;22.816;2022-12-11T08:05:12;17.30;;;7.35;;
22922;SDS011;11627;51.322;22.816;2022-12-11T08:07:38;17.88;;;8.00;;
22922;SDS011;11627;51.322;22.816;2022-12-11T08:10:04;17.05;;;7.78;;
22922;SDS011;11627;51.322;22.816;2022-12-11T08:12:30;15.05;;;7.00;;
22922;SDS011;11627;51.322;22.816;2022-12-11T08:14:55;17.35;;;7.50;;
22922;SDS011;11627;51.322;22.816;2022-12-11T08:17:21;16.08;;;6.75;;
22922;SDS011;11627;51.322;22.816;2022-12-11T08:19:47;15.45;;;6.78;;
22922;SDS011;11627;51.322;22.816;2022-12-11T08:22:12;16.83;;;7.63;;
22922;SDS011;11627;51.322;22.816;2022-12-11T08:24:38;17.33;;;7.10;;
22922;SDS011;11627;51.322;22.816;2022-12-11T08:27:04;13.25;;;6.95;;
22922;SDS011;11627;51.322;22.816;2022-12-11T08:29:30;16.98;;;7.85;;
22922;SDS011;11627;51.322;22.816;2022-12-11T08:31:56;20.95;;;8.48;;
22922;SDS011;11627;51.322;22.816;2022-12-11T08:34:22;15.40;;;7.20;;
22922;SDS011;11627;51.322;22.816;2022-12-11T08:36:48;15.63;;;8.02;;
22922;SDS011;11627;51.322;22.816;2022-12-11T08:39:13;19.65;;;8.18;;
22922;SDS011;11627;51.322;22.816;2022-12-11T08:41:39;18.13;;;7.78;;
22922;SDS011;11627;51.322;22.816;2022-12-11T08:44:08;17.92;;;8.52;;
22922;SDS011;11627;51.322;22.816;2022-12-11T08:46:35;16.13;;;6.78;;
22922;SDS011;11627;51.322;22.816;2022-12-11T08:49:01;18.70;;;7.97;;
22922;SDS011;11627;51.322;22.816;2022-12-11T08:51:27;16.08;;;7.40;;
22922;SDS011;11627;51.322;22.816;2022-12-11T08:53:55;15.48;;;7.45;;
22922;SDS011;11627;51.322;22.816;2022-12-11T08:56:22;14.95;;;7.38;;
22922;SDS011;11627;51.322;22.816;2022-12-11T08:58:48;15.35;;;7.00;;
22922;SDS011;11627;51.322;22.816;2022-12-11T09:01:18;16.33;;;7.93;;
22922;SDS011;11627;51.322;22.816;2022-12-11T09:03:49;15.85;;;7.53;;
22922;SDS011;11627;51.322;22.816;2022-12-11T09:06:17;17.98;;;6.85;;
22922;SDS011;11627;51.322;22.816;2022-12-11T09:08:45;16.55;;;6.82;;
22922;SDS011;11627;51.322;22.816;2022-12-11T09:11:12;13.95;;;7.15;;
22922;SDS011;11627;51.322;22.816;2022-12-11T09:13:40;14.07;;;7.15;;
22922;SDS011;11627;51.322;22.816;2022-12-11T09:16:08;15.63;;;7.47;;
22922;SDS011;11627;51.322;22.816;2022-12-11T09:18:36;13.95;;;6.43;;
22922;SDS011;11627;51.322;22.816;2022-12-11T09:21:12;16.55;;;7.22;;
22922;SDS011;11627;51.322;22.816;2022-12-11T09:23:39;14.40;;;6.65;;
22922;SDS011;11627;51.322;22.816;2022-12-11T09:26:06;16.73;;;7.55;;
22922;SDS011;11627;51.322;22.816;2022-12-11T09:28:37;15.43;;;6.38;;
22922;SDS011;11627;51.322;22.816;2022-12-11T09:31:11;19.02;;;7.53;;
22922;SDS011;11627;51.322;22.816;2022-12-11T09:33:41;18.02;;;7.40;;
22922;SDS011;11627;51.322;22.816;2022-12-11T09:36:08;18.70;;;7.88;;
22922;SDS011;11627;51.322;22.816;2022-12-11T09:38:34;15.07;;;6.93;;
22922;SDS011;11627;51.322;22.816;2022-12-11T09:41:00;16.02;;;6.90;;
22922;SDS011;11627;51.322;22.816;2022-12-11T09:43:37;16.30;;;6.93;;
22922;SDS011;11627;51.322;22.816;2022-12-11T09:46:10;11.70;;;6.20;;
22922;SDS011;11627;51.322;22.816;2022-12-11T09:48:39;17.23;;;7.03;;
22922;SDS011;11627;51.322;22.816;2022-12-11T09:51:14;12.38;;;6.03;;
22922;SDS011;11627;51.322;22.816;2022-12-11T09:53:51;12.48;;;6.68;;
22922;SDS011;11627;51.322;22.816;2022-12-11T09:56:54;16.35;;;6.85;;
22922;SDS011;11627;51.322;22.816;2022-12-11T10:07:59;11.75;;;5.78;;
22922;SDS011;11627;51.322;22.816;2022-12-11T10:10:45;12.55;;;5.72;;
22922;SDS011;11627;51.322;22.816;2022-12-11T10:18:34;13.95;;;5.97;;
22922;SDS011;11627;51.322;22.816;2022-12-11T10:21:02;13.35;;;6.35;;
22922;SDS011;11627;51.322;22.816;2022-12-11T10:23:29;12.55;;;5.97;;
22922;SDS011;11627;51.322;22.816;2022-12-11T10:28:36;14.00;;;5.93;;
22922;SDS011;11627;51.322;22.816;2022-12-11T10:33:43;15.70;;;7.20;;
22922;SDS011;11627;51.322;22.816;2022-12-11T10:36:20;14.27;;;6.28;;
22922;SDS011;11627;51.322;22.816;2022-12-11T10:38:51;12.52;;;5.78;;
22922;SDS011;11627;51.322;22.816;2022-12-11T10:41:18;12.18;;;5.68;;
22922;SDS011;11627;51.322;22.816;2022-12-11T10:43:49;16.50;;;6.50;;
22922;SDS011;11627;51.322;22.816;2022-12-11T10:46:23;12.10;;;6.00;;
22922;SDS011;11627;51.322;22.816;2022-12-11T10:48:51;11.73;;;6.25;;
22922;SDS011;11627;51.322;22.816;2022-12-11T10:51:17;14.73;;;6.57;;
22922;SDS011;11627;51.322;22.816;2022-12-11T10:53:52;15.63;;;5.75;;
22922;SDS011;11627;51.322;22.816;2022-12-11T10:56:26;15.27;;;6.60;;
22922;SDS011;11627;51.322;22.816;2022-12-11T10:58:55;13.68;;;5.95;;
22922;SDS011;11627;51.322;22.816;2022-12-11T11:01:25;15.52;;;7.07;;
22922;SDS011;11627;51.322;22.816;2022-12-11T11:06:30;19.08;;;7.43;;
22922;SDS011;11627;51.322;22.816;2022-12-11T11:08:57;18.92;;;8.10;;
22922;SDS011;11627;51.322;22.816;2022-12-11T11:16:45;19.80;;;8.02;;
22922;SDS011;11627;51.322;22.816;2022-12-11T11:19:31;16.40;;;7.78;;
22922;SDS011;11627;51.322;22.816;2022-12-11T11:22:04;18.23;;;8.32;;
22922;SDS011;11627;51.322;22.816;2022-12-11T11:24:37;17.42;;;8.15;;
22922;SDS011;11627;51.322;22.816;2022-12-11T11:27:51;18.55;;;8.40;;
22922;SDS011;11627;51.322;22.816;2022-12-11T11:30:05;18.65;;;8.40;;
22922;SDS011;11627;51.322;22.816;2022-12-11T11:32:41;18.30;;;9.15;;
22922;SDS011;11627;51.322;22.816;2022-12-11T11:37:35;18.38;;;8.95;;
22922;SDS011;11627;51.322;22.816;2022-12-11T11:40:07;17.23;;;8.18;;
22922;SDS011;11627;51.322;22.816;2022-12-11T11:48:27;18.48;;;8.48;;
22922;SDS011;11627;51.322;22.816;2022-12-11T11:51:26;19.60;;;8.75;;
22922;SDS011;11627;51.322;22.816;2022-12-11T11:56:53;17.50;;;9.15;;
22922;SDS011;11627;51.322;22.816;2022-12-11T11:59:25;18.17;;;9.10;;
22922;SDS011;11627;51.322;22.816;2022-12-11T12:02:12;21.13;;;9.70;;
22922;SDS011;11627;51.322;22.816;2022-12-11T12:04:40;20.83;;;9.75;;
22922;SDS011;11627;51.322;22.816;2022-12-11T12:07:17;22.10;;;8.82;;
22922;SDS011;11627;51.322;22.816;2022-12-11T12:10:02;18.45;;;8.65;;
22922;SDS011;11627;51.322;22.816;2022-12-11T12:17:52;17.05;;;7.97;;
22922;SDS011;11627;51.322;22.816;2022-12-11T12:28:38;14.07;;;6.88;;
22922;SDS011;11627;51.322;22.816;2022-12-11T12:36:17;18.20;;;8.75;;
22922;SDS011;11627;51.322;22.816;2022-12-11T12:39:01;19.83;;;9.48;;
22922;SDS011;11627;51.322;22.816;2022-12-11T12:44:31;20.30;;;9.63;;
22922;SDS011;11627;51.322;22.816;2022-12-11T12:47:09;21.75;;;9.25;;
22922;SDS011;11627;51.322;22.816;2022-12-11T12:49:40;23.25;;;9.32;;
22922;SDS011;11627;51.322;22.816;2022-12-11T12:52:22;28.38;;;10.55;;
22922;SDS011;11627;51.322;22.816;2022-12-11T12:54:55;31.23;;;11.93;;
22922;SDS011;11627;51.322;22.816;2022-12-11T12:57:44;27.65;;;10.50;;
22922;SDS011;11627;51.322;22.816;2022-12-11T13:00:24;30.13;;;10.23;;
22922;SDS011;11627;51.322;22.816;2022-12-11T13:03:18;32.80;;;12.45;;
22922;SDS011;11627;51.322;22.816;2022-12-11T13:05:57;30.20;;;12.80;;
22922;SDS011;11627;51.322;22.816;2022-12-11T13:08:26;25.40;;;10.05;;
22922;SDS011;11627;51.322;22.816;2022-12-11T13:11:07;34.53;;;12.55;;
22922;SDS011;11627;51.322;22.816;2022-12-11T13:18:42;29.13;;;11.57;;
22922;SDS011;11627;51.322;22.816;2022-12-11T13:21:24;29.52;;;12.02;;
22922;SDS011;11627;51.322;22.816;2022-12-11T13:23:54;28.17;;;11.05;;
22922;SDS011;11627;51.322;22.816;2022-12-11T13:26:36;25.20;;;10.95;;
22922;SDS011;11627;51.322;22.816;2022-12-11T13:29:02;23.50;;;10.75;;
22922;SDS011;11627;51.322;22.816;2022-12-11T13:31:29;24.65;;;10.65;;
22922;SDS011;11627;51.322;22.816;2022-12-11T13:34:06;29.88;;;12.05;;
22922;SDS011;11627;51.322;22.816;2022-12-11T13:36:39;30.50;;;11.05;;
22922;SDS011;11627;51.322;22.816;2022-12-11T13:42:19;25.52;;;10.55;;
22922;SDS011;11627;51.322;22.816;2022-12-11T13:44:46;25.95;;;11.43;;
22922;SDS011;11627;51.322;22.816;2022-12-11T13:47:13;23.90;;;10.30;;
22922;SDS011;11627;51.322;22.816;2022-12-11T13:49:42;22.23;;;10.20;;
22922;SDS011;11627;51.322;22.816;2022-12-11T13:52:16;24.90;;;9.68;;
22922;SDS011;11627;51.322;22.816;2022-12-11T13:54:47;23.58;;;9.70;;
22922;SDS011;11627;51.322;22.816;2022-12-11T13:57:16;21.65;;;9.90;;
22922;SDS011;11627;51.322;22.816;2022-12-11T13:59:56;19.77;;;8.63;;
22922;SDS011;11627;51.322;22.816;2022-12-11T14:05:03;18.83;;;9.45;;
22922;SDS011;11627;51.322;22.816;2022-12-11T14:07:36;18.95;;;9.15;;
22922;SDS011;11627;51.322;22.816;2022-12-11T14:10:23;22.15;;;8.85;;
22922;SDS011;11627;51.322;22.816;2022-12-11T14:12:52;21.85;;;9.38;;
22922;SDS011;11627;51.322;22.816;2022-12-11T14:15:23;20.88;;;9.13;;
22922;SDS011;11627;51.322;22.816;2022-12-11T14:17:49;22.70;;;9.27;;
22922;SDS011;11627;51.322;22.816;2022-12-11T14:20:20;15.57;;;6.75;;
22922;SDS011;11627;51.322;22.816;2022-12-11T14:22:48;21.15;;;9.20;;
22922;SDS011;11627;51.322;22.816;2022-12-11T14:25:32;22.00;;;9.52;;
22922;SDS011;11627;51.322;22.816;2022-12-11T14:27:57;18.73;;;9.13;;
22922;SDS011;11627;51.322;22.816;2022-12-11T14:30:27;22.08;;;10.15;;
22922;SDS011;11627;51.322;22.816;2022-12-11T14:32:56;24.98;;;10.63;;
22922;SDS011;11627;51.322;22.816;2022-12-11T14:35:26;23.52;;;10.18;;
22922;SDS011;11627;51.322;22.816;2022-12-11T14:37:57;19.67;;;9.23;;
22922;SDS011;11627;51.322;22.816;2022-12-11T14:40:28;27.20;;;10.27;;
22922;SDS011;11627;51.322;22.816;2022-12-11T14:42:58;23.70;;;9.35;;
22922;SDS011;11627;51.322;22.816;2022-12-11T14:45:33;26.48;;;10.63;;
22922;SDS011;11627;51.322;22.816;2022-12-11T14:48:38;25.02;;;10.02;;
22922;SDS011;11627;51.322;22.816;2022-12-11T14:51:00;22.67;;;11.00;;
22922;SDS011;11627;51.322;22.816;2022-12-11T14:53:33;25.08;;;10.95;;
22922;SDS011;11627;51.322;22.816;2022-12-11T14:56:04;23.85;;;9.68;;
22922;SDS011;11627;51.322;22.816;2022-12-11T14:58:32;23.73;;;9.85;;
22922;SDS011;11627;51.322;22.816;2022-12-11T15:01:20;26.13;;;11.18;;
22922;SDS011;11627;51.322;22.816;2022-12-11T15:04:00;26.00;;;10.50;;
22922;SDS011;11627;51.322;22.816;2022-12-11T15:06:48;30.27;;;11.35;;
22922;SDS011;11627;51.322;22.816;2022-12-11T15:11:50;23.52;;;10.98;;
22922;SDS011;11627;51.322;22.816;2022-12-11T15:14:19;26.55;;;10.95;;
22922;SDS011;11627;51.322;22.816;2022-12-11T15:16:46;24.65;;;11.07;;
22922;SDS011;11627;51.322;22.816;2022-12-11T15:22:12;26.55;;;11.25;;
22922;SDS011;11627;51.322;22.816;2022-12-11T15:24:40;29.02;;;12.70;;
22922;SDS011;11627;51.322;22.816;2022-12-11T15:35:37;25.38;;;9.73;;
22922;SDS011;11627;51.322;22.816;2022-12-11T15:38:03;24.02;;;9.70;;
22922;SDS011;11627;51.322;22.816;2022-12-11T15:40:29;25.67;;;11.35;;
22922;SDS011;11627;51.322;22.816;2022-12-11T15:42:55;24.10;;;10.98;;
22922;SDS011;11627;51.322;22.816;2022-12-11T15:45:25;29.35;;;11.80;;
22922;SDS011;11627;51.322;22.816;2022-12-11T15:47:52;24.05;;;9.52;;
22922;SDS011;11627;51.322;22.816;2022-12-11T15:50:20;17.58;;;7.75;;
22922;SDS011;11627;51.322;22.816;2022-12-11T15:52:50;37.10;;;13.93;;
22922;SDS011;11627;51.322;22.816;2022-12-11T15:55:17;21.92;;;9.48;;
22922;SDS011;11627;51.322;22.816;2022-12-11T15:57:48;19.00;;;8.73;;
22922;SDS011;11627;51.322;22.816;2022-12-11T16:00:17;13.02;;;6.28;;
22922;SDS011;11627;51.322;22.816;2022-12-11T16:02:44;20.35;;;8.88;;
22922;SDS011;11627;51.322;22.816;2022-12-11T16:05:10;21.08;;;8.55;;
22922;SDS011;11627;51.322;22.816;2022-12-11T16:07:36;10.75;;;5.07;;
22922;SDS011;11627;51.322;22.816;2022-12-11T16:10:03;21.55;;;8.63;;
22922;SDS011;11627;51.322;22.816;2022-12-11T16:12:29;8.65;;;5.13;;
22922;SDS011;11627;51.322;22.816;2022-12-11T16:14:55;22.20;;;9.57;;
22922;SDS011;11627;51.322;22.816;2022-12-11T16:17:20;14.80;;;7.22;;